sensor_id;sensor_type;location;lat;lon;timestamp;temperature;humidity
10443;DHT22;5269;51.146;16.986;2022-07-23T00:00:15;20.60;99.90
10443;DHT22;5269;51.146;16.986;2022-07-23T00:02:43;20.50;1.00
10443;DHT22;5269;51.146;16.986;2022-07-23T00:05:10;20.30;1.00
10443;DHT22;5269;51.146;16.986;2022-07-23T00:07:37;20.20;1.00
10443;DHT22;5269;51.146;16.986;2022-07-23T00:10:05;20.20;1.00
10443;DHT22;5269;51.146;16.986;2022-07-23T00:12:33;20.20;1.00
10443;DHT22;5269;51.146;16.986;2022-07-23T00:15:01;20.20;1.00
10443;DHT22;5269;51.146;16.986;2022-07-23T00:17:28;20.20;99.90
10443;DHT22;5269;51.146;16.986;2022-07-23T00:19:55;20.10;99.90
10443;DHT22;5269;51.146;16.986;2022-07-23T00:22:22;20.10;1.00
10443;DHT22;5269;51.146;16.986;2022-07-23T00:24:49;20.10;99.90
10443;DHT22;5269;51.146;16.986;2022-07-23T00:27:16;19.90;65.00
10443;DHT22;5269;51.146;16.986;2022-07-23T00:29:43;19.80;29.20
10443;DHT22;5269;51.146;16.986;2022-07-23T00:32:11;19.80;1.00
10443;DHT22;5269;51.146;16.986;2022-07-23T00:34:38;19.90;99.90
10443;DHT22;5269;51.146;16.986;2022-07-23T00:37:05;19.80;1.00
10443;DHT22;5269;51.146;16.986;2022-07-23T00:39:32;19.80;27.90
10443;DHT22;5269;51.146;16.986;2022-07-23T00:41:59;19.80;1.00
10443;DHT22;5269;51.146;16.986;2022-07-23T00:44:27;19.80;5.90
10443;DHT22;5269;51.146;16.986;2022-07-23T00:46:56;19.80;1.00
10443;DHT22;5269;51.146;16.986;2022-07-23T00:49:26;19.80;1.00
10443;DHT22;5269;51.146;16.986;2022-07-23T00:51:55;19.80;1.00
10443;DHT22;5269;51.146;16.986;2022-07-23T00:54:23;19.80;1.00
10443;DHT22;5269;51.146;16.986;2022-07-23T00:56:50;19.80;99.90
10443;DHT22;5269;51.146;16.986;2022-07-23T00:59:17;19.80;99.90
10443;DHT22;5269;51.146;16.986;2022-07-23T01:01:44;19.90;99.90
10443;DHT22;5269;51.146;16.986;2022-07-23T01:04:13;19.70;1.00
10443;DHT22;5269;51.146;16.986;2022-07-23T01:06:43;19.80;1.00
10443;DHT22;5269;51.146;16.986;2022-07-23T01:09:10;19.70;1.00
10443;DHT22;5269;51.146;16.986;2022-07-23T01:11:37;19.60;99.90
10443;DHT22;5269;51.146;16.986;2022-07-23T01:14:09;19.70;48.20
10443;DHT22;5269;51.146;16.986;2022-07-23T01:16:36;19.60;89.00
10443;DHT22;5269;51.146;16.986;2022-07-23T01:19:03;19.60;1.00
10443;DHT22;5269;51.146;16.986;2022-07-23T01:21:38;19.70;99.90
10443;DHT22;5269;51.146;16.986;2022-07-23T01:24:07;19.60;99.90
10443;DHT22;5269;51.146;16.986;2022-07-23T01:26:35;19.50;18.10
10443;DHT22;5269;51.146;16.986;2022-07-23T01:29:02;19.50;1.00
10443;DHT22;5269;51.146;16.986;2022-07-23T01:31:30;19.50;1.00
10443;DHT22;5269;51.146;16.986;2022-07-23T01:33:57;19.60;1.00
10443;DHT22;5269;51.146;16.986;2022-07-23T01:36:24;19.50;1.00
10443;DHT22;5269;51.146;16.986;2022-07-23T01:38:51;19.40;1.00
10443;DHT22;5269;51.146;16.986;2022-07-23T01:41:20;19.30;45.20
10443;DHT22;5269;51.146;16.986;2022-07-23T01:43:47;19.30;99.90
10443;DHT22;5269;51.146;16.986;2022-07-23T01:46:14;19.30;99.90
10443;DHT22;5269;51.146;16.986;2022-07-23T01:48:41;19.20;1.00
10443;DHT22;5269;51.146;16.986;2022-07-23T01:51:08;19.20;1.00
10443;DHT22;5269;51.146;16.986;2022-07-23T01:53:36;19.20;99.90
10443;DHT22;5269;51.146;16.986;2022-07-23T01:56:04;19.20;96.10
10443;DHT22;5269;51.146;16.986;2022-07-23T01:58:32;19.20;22.20
10443;DHT22;5269;51.146;16.986;2022-07-23T02:00:59;19.10;1.00
10443;DHT22;5269;51.146;16.986;2022-07-23T02:03:27;19.00;1.00
10443;DHT22;5269;51.146;16.986;2022-07-23T02:05:53;19.10;1.00
10443;DHT22;5269;51.146;16.986;2022-07-23T02:08:21;19.20;1.00
10443;DHT22;5269;51.146;16.986;2022-07-23T02:10:48;19.20;99.90
10443;DHT22;5269;51.146;16.986;2022-07-23T02:13:17;19.20;99.90
10443;DHT22;5269;51.146;16.986;2022-07-23T02:15:45;19.20;99.90
10443;DHT22;5269;51.146;16.986;2022-07-23T02:18:12;19.10;1.00
10443;DHT22;5269;51.146;16.986;2022-07-23T02:20:39;19.10;1.00
10443;DHT22;5269;51.146;16.986;2022-07-23T02:23:06;19.00;99.90
10443;DHT22;5269;51.146;16.986;2022-07-23T02:25:33;18.90;99.90
10443;DHT22;5269;51.146;16.986;2022-07-23T02:28:00;18.90;99.90
10443;DHT22;5269;51.146;16.986;2022-07-23T02:30:28;18.90;99.90
10443;DHT22;5269;51.146;16.986;2022-07-23T02:32:56;18.80;99.90
10443;DHT22;5269;51.146;16.986;2022-07-23T02:35:23;18.80;1.00
10443;DHT22;5269;51.146;16.986;2022-07-23T02:37:50;18.90;99.90
10443;DHT22;5269;51.146;16.986;2022-07-23T02:40:17;18.90;99.90
10443;DHT22;5269;51.146;16.986;2022-07-23T02:42:44;18.80;99.90
10443;DHT22;5269;51.146;16.986;2022-07-23T02:45:11;18.90;99.90
10443;DHT22;5269;51.146;16.986;2022-07-23T02:47:38;18.90;99.90
10443;DHT22;5269;51.146;16.986;2022-07-23T02:50:07;18.90;99.90
10443;DHT22;5269;51.146;16.986;2022-07-23T02:52:36;18.90;1.00
10443;DHT22;5269;51.146;16.986;2022-07-23T02:55:03;18.80;1.00
10443;DHT22;5269;51.146;16.986;2022-07-23T02:57:31;18.80;99.90
10443;DHT22;5269;51.146;16.986;2022-07-23T02:59:58;18.80;99.90
10443;DHT22;5269;51.146;16.986;2022-07-23T03:02:25;18.80;56.80
10443;DHT22;5269;51.146;16.986;2022-07-23T03:04:51;18.90;3.70
10443;DHT22;5269;51.146;16.986;2022-07-23T03:07:20;18.90;1.00
10443;DHT22;5269;51.146;16.986;2022-07-23T03:09:47;18.80;1.00
10443;DHT22;5269;51.146;16.986;2022-07-23T03:12:14;18.80;99.90
10443;DHT22;5269;51.146;16.986;2022-07-23T03:14:41;18.80;78.70
10443;DHT22;5269;51.146;16.986;2022-07-23T03:17:08;18.80;92.40
10443;DHT22;5269;51.146;16.986;2022-07-23T03:19:35;18.80;99.90
10443;DHT22;5269;51.146;16.986;2022-07-23T03:22:03;18.70;1.00
10443;DHT22;5269;51.146;16.986;2022-07-23T03:24:31;18.80;1.00
10443;DHT22;5269;51.146;16.986;2022-07-23T03:27:12;18.80;1.00
10443;DHT22;5269;51.146;16.986;2022-07-23T03:29:39;18.90;1.00
10443;DHT22;5269;51.146;16.986;2022-07-23T03:32:06;19.00;99.90
10443;DHT22;5269;51.146;16.986;2022-07-23T03:34:32;19.00;1.00
10443;DHT22;5269;51.146;16.986;2022-07-23T03:36:59;19.10;1.00
10443;DHT22;5269;51.146;16.986;2022-07-23T03:39:26;19.10;99.90
10443;DHT22;5269;51.146;16.986;2022-07-23T03:41:55;19.10;1.00
10443;DHT22;5269;51.146;16.986;2022-07-23T03:44:21;19.20;1.00
10443;DHT22;5269;51.146;16.986;2022-07-23T03:46:48;19.40;1.00
10443;DHT22;5269;51.146;16.986;2022-07-23T03:49:15;19.30;1.00
10443;DHT22;5269;51.146;16.986;2022-07-23T03:51:42;19.30;99.90
10443;DHT22;5269;51.146;16.986;2022-07-23T03:54:09;19.40;99.90
10443;DHT22;5269;51.146;16.986;2022-07-23T03:56:36;19.50;99.90
10443;DHT22;5269;51.146;16.986;2022-07-23T03:59:05;19.60;7.20
10443;DHT22;5269;51.146;16.986;2022-07-23T04:01:32;19.70;25.10
10443;DHT22;5269;51.146;16.986;2022-07-23T04:03:59;19.70;1.00
10443;DHT22;5269;51.146;16.986;2022-07-23T04:06:25;19.70;99.90
10443;DHT22;5269;51.146;16.986;2022-07-23T04:08:53;19.90;1.00
10443;DHT22;5269;51.146;16.986;2022-07-23T04:11:19;20.00;99.90
10443;DHT22;5269;51.146;16.986;2022-07-23T04:13:46;20.10;1.00
10443;DHT22;5269;51.146;16.986;2022-07-23T04:16:15;20.20;1.00
10443;DHT22;5269;51.146;16.986;2022-07-23T04:18:42;20.30;1.00
10443;DHT22;5269;51.146;16.986;2022-07-23T04:21:08;20.30;1.00
10443;DHT22;5269;51.146;16.986;2022-07-23T04:23:35;20.20;1.00
10443;DHT22;5269;51.146;16.986;2022-07-23T04:26:02;20.10;1.00
10443;DHT22;5269;51.146;16.986;2022-07-23T04:28:29;20.20;1.00
10443;DHT22;5269;51.146;16.986;2022-07-23T04:30:56;20.10;1.00
10443;DHT22;5269;51.146;16.986;2022-07-23T04:33:25;20.20;1.00
10443;DHT22;5269;51.146;16.986;2022-07-23T04:35:52;20.20;1.00
10443;DHT22;5269;51.146;16.986;2022-07-23T04:38:19;20.30;1.00
10443;DHT22;5269;51.146;16.986;2022-07-23T04:40:46;20.40;1.00
10443;DHT22;5269;51.146;16.986;2022-07-23T04:43:13;20.60;1.00
10443;DHT22;5269;51.146;16.986;2022-07-23T04:45:40;20.80;1.00
10443;DHT22;5269;51.146;16.986;2022-07-23T04:48:07;21.10;99.90
10443;DHT22;5269;51.146;16.986;2022-07-23T04:50:35;21.20;90.00
10443;DHT22;5269;51.146;16.986;2022-07-23T04:53:02;21.40;1.00
10443;DHT22;5269;51.146;16.986;2022-07-23T04:55:29;21.60;1.00
10443;DHT22;5269;51.146;16.986;2022-07-23T04:57:56;21.70;1.00
10443;DHT22;5269;51.146;16.986;2022-07-23T05:00:24;21.90;1.00
10443;DHT22;5269;51.146;16.986;2022-07-23T05:02:51;22.00;1.00
10443;DHT22;5269;51.146;16.986;2022-07-23T05:05:18;22.10;1.00
10443;DHT22;5269;51.146;16.986;2022-07-23T05:07:47;22.20;1.00
10443;DHT22;5269;51.146;16.986;2022-07-23T05:10:13;22.40;99.90
10443;DHT22;5269;51.146;16.986;2022-07-23T05:12:40;22.40;99.90
10443;DHT22;5269;51.146;16.986;2022-07-23T05:15:08;22.50;1.00
10443;DHT22;5269;51.146;16.986;2022-07-23T05:17:35;22.60;1.00
10443;DHT22;5269;51.146;16.986;2022-07-23T05:20:02;22.60;1.00
10443;DHT22;5269;51.146;16.986;2022-07-23T05:22:29;22.80;1.00
10443;DHT22;5269;51.146;16.986;2022-07-23T05:24:57;22.80;1.00
10443;DHT22;5269;51.146;16.986;2022-07-23T05:27:24;22.80;1.00
10443;DHT22;5269;51.146;16.986;2022-07-23T05:29:54;22.90;1.00
10443;DHT22;5269;51.146;16.986;2022-07-23T05:32:22;23.00;1.00
10443;DHT22;5269;51.146;16.986;2022-07-23T05:34:49;23.10;1.00
10443;DHT22;5269;51.146;16.986;2022-07-23T05:37:16;23.20;1.00
10443;DHT22;5269;51.146;16.986;2022-07-23T05:39:43;23.30;1.00
10443;DHT22;5269;51.146;16.986;2022-07-23T05:42:12;23.40;1.00
10443;DHT22;5269;51.146;16.986;2022-07-23T05:44:39;23.40;1.00
10443;DHT22;5269;51.146;16.986;2022-07-23T05:47:05;23.50;1.00
10443;DHT22;5269;51.146;16.986;2022-07-23T05:49:32;23.50;1.00
10443;DHT22;5269;51.146;16.986;2022-07-23T05:52:03;23.70;1.00
10443;DHT22;5269;51.146;16.986;2022-07-23T05:54:30;23.70;1.00
10443;DHT22;5269;51.146;16.986;2022-07-23T05:56:57;23.80;1.00
10443;DHT22;5269;51.146;16.986;2022-07-23T05:59:26;24.00;1.00
10443;DHT22;5269;51.146;16.986;2022-07-23T06:01:53;24.00;1.00
10443;DHT22;5269;51.146;16.986;2022-07-23T06:04:19;24.00;1.00
10443;DHT22;5269;51.146;16.986;2022-07-23T06:06:46;23.90;1.00
10443;DHT22;5269;51.146;16.986;2022-07-23T06:09:13;23.90;1.00
10443;DHT22;5269;51.146;16.986;2022-07-23T06:14:08;24.00;1.00
10443;DHT22;5269;51.146;16.986;2022-07-23T06:16:37;24.00;99.90
10443;DHT22;5269;51.146;16.986;2022-07-23T06:19:04;24.00;1.00
10443;DHT22;5269;51.146;16.986;2022-07-23T06:21:31;24.20;1.00
10443;DHT22;5269;51.146;16.986;2022-07-23T06:23:58;24.20;99.90
10443;DHT22;5269;51.146;16.986;2022-07-23T06:26:25;24.30;99.90
10443;DHT22;5269;51.146;16.986;2022-07-23T06:28:51;24.40;99.90
10443;DHT22;5269;51.146;16.986;2022-07-23T06:31:18;24.50;99.90
10443;DHT22;5269;51.146;16.986;2022-07-23T06:33:47;24.40;99.90
10443;DHT22;5269;51.146;16.986;2022-07-23T06:36:13;24.60;99.90
10443;DHT22;5269;51.146;16.986;2022-07-23T06:38:40;24.60;99.90
10443;DHT22;5269;51.146;16.986;2022-07-23T06:41:07;24.70;99.90
10443;DHT22;5269;51.146;16.986;2022-07-23T06:43:34;24.80;99.90
10443;DHT22;5269;51.146;16.986;2022-07-23T06:46:01;24.90;99.90
10443;DHT22;5269;51.146;16.986;2022-07-23T06:48:28;25.20;99.90
10443;DHT22;5269;51.146;16.986;2022-07-23T06:50:56;25.30;99.90
10443;DHT22;5269;51.146;16.986;2022-07-23T06:53:23;25.40;99.90
10443;DHT22;5269;51.146;16.986;2022-07-23T06:55:50;25.60;99.90
10443;DHT22;5269;51.146;16.986;2022-07-23T06:58:17;25.70;99.90
10443;DHT22;5269;51.146;16.986;2022-07-23T07:00:45;25.80;99.90
10443;DHT22;5269;51.146;16.986;2022-07-23T07:03:11;26.00;99.90
10443;DHT22;5269;51.146;16.986;2022-07-23T07:05:38;25.80;99.90
10443;DHT22;5269;51.146;16.986;2022-07-23T07:08:07;25.90;99.90
10443;DHT22;5269;51.146;16.986;2022-07-23T07:10:34;26.10;99.90
10443;DHT22;5269;51.146;16.986;2022-07-23T07:13:01;26.10;99.90
10443;DHT22;5269;51.146;16.986;2022-07-23T07:15:28;26.00;99.90
10443;DHT22;5269;51.146;16.986;2022-07-23T07:17:55;25.80;99.90
10443;DHT22;5269;51.146;16.986;2022-07-23T07:20:22;25.70;99.90
10443;DHT22;5269;51.146;16.986;2022-07-23T07:22:49;25.70;99.90
10443;DHT22;5269;51.146;16.986;2022-07-23T07:25:18;25.70;99.90
10443;DHT22;5269;51.146;16.986;2022-07-23T07:27:44;25.70;99.90
10443;DHT22;5269;51.146;16.986;2022-07-23T07:30:12;25.80;99.90
10443;DHT22;5269;51.146;16.986;2022-07-23T07:32:39;26.00;99.90
10443;DHT22;5269;51.146;16.986;2022-07-23T07:35:07;26.00;99.90
10443;DHT22;5269;51.146;16.986;2022-07-23T07:37:34;26.10;99.90
10443;DHT22;5269;51.146;16.986;2022-07-23T07:40:02;26.20;99.90
10443;DHT22;5269;51.146;16.986;2022-07-23T07:42:31;26.30;99.90
10443;DHT22;5269;51.146;16.986;2022-07-23T07:44:58;26.10;99.90
10443;DHT22;5269;51.146;16.986;2022-07-23T07:47:25;26.20;99.90
10443;DHT22;5269;51.146;16.986;2022-07-23T07:49:52;26.20;99.90
10443;DHT22;5269;51.146;16.986;2022-07-23T07:52:19;26.30;99.90
10443;DHT22;5269;51.146;16.986;2022-07-23T07:54:46;26.30;99.90
10443;DHT22;5269;51.146;16.986;2022-07-23T07:57:13;26.60;99.90
10443;DHT22;5269;51.146;16.986;2022-07-23T07:59:41;26.60;99.90
10443;DHT22;5269;51.146;16.986;2022-07-23T08:02:08;26.60;99.90
10443;DHT22;5269;51.146;16.986;2022-07-23T08:04:35;26.80;99.90
10443;DHT22;5269;51.146;16.986;2022-07-23T08:07:01;26.80;99.90
10443;DHT22;5269;51.146;16.986;2022-07-23T08:09:28;26.90;99.90
10443;DHT22;5269;51.146;16.986;2022-07-23T08:11:55;27.00;99.90
10443;DHT22;5269;51.146;16.986;2022-07-23T08:14:22;27.00;99.90
10443;DHT22;5269;51.146;16.986;2022-07-23T08:16:50;27.20;99.90
10443;DHT22;5269;51.146;16.986;2022-07-23T08:19:17;27.30;99.90
10443;DHT22;5269;51.146;16.986;2022-07-23T08:21:44;27.20;99.90
10443;DHT22;5269;51.146;16.986;2022-07-23T08:24:11;27.60;99.90
10443;DHT22;5269;51.146;16.986;2022-07-23T08:26:38;27.90;99.90
10443;DHT22;5269;51.146;16.986;2022-07-23T08:29:05;28.10;99.90
10443;DHT22;5269;51.146;16.986;2022-07-23T08:31:32;27.80;99.90
10443;DHT22;5269;51.146;16.986;2022-07-23T08:34:00;27.90;99.90
10443;DHT22;5269;51.146;16.986;2022-07-23T08:36:28;28.10;99.90
10443;DHT22;5269;51.146;16.986;2022-07-23T08:38:57;28.20;99.90
10443;DHT22;5269;51.146;16.986;2022-07-23T08:41:24;28.40;99.90
10443;DHT22;5269;51.146;16.986;2022-07-23T08:43:54;28.50;99.90
10443;DHT22;5269;51.146;16.986;2022-07-23T08:46:22;28.60;99.90
10443;DHT22;5269;51.146;16.986;2022-07-23T08:48:50;28.40;99.90
10443;DHT22;5269;51.146;16.986;2022-07-23T08:51:19;28.60;99.90
10443;DHT22;5269;51.146;16.986;2022-07-23T08:53:47;28.70;99.90
10443;DHT22;5269;51.146;16.986;2022-07-23T08:56:14;29.00;99.90
10443;DHT22;5269;51.146;16.986;2022-07-23T08:58:41;29.00;99.90
10443;DHT22;5269;51.146;16.986;2022-07-23T09:01:08;28.80;99.90
10443;DHT22;5269;51.146;16.986;2022-07-23T09:03:38;28.70;99.90
10443;DHT22;5269;51.146;16.986;2022-07-23T09:06:05;28.90;99.90
10443;DHT22;5269;51.146;16.986;2022-07-23T09:08:38;29.00;99.90
10443;DHT22;5269;51.146;16.986;2022-07-23T09:11:06;29.00;99.90
10443;DHT22;5269;51.146;16.986;2022-07-23T09:13:36;29.30;99.90
10443;DHT22;5269;51.146;16.986;2022-07-23T09:16:07;29.00;99.90
10443;DHT22;5269;51.146;16.986;2022-07-23T09:18:42;29.10;99.90
10443;DHT22;5269;51.146;16.986;2022-07-23T09:21:19;29.20;99.90
10443;DHT22;5269;51.146;16.986;2022-07-23T09:23:54;29.10;99.90
10443;DHT22;5269;51.146;16.986;2022-07-23T09:26:34;29.30;99.90
10443;DHT22;5269;51.146;16.986;2022-07-23T09:29:07;29.20;99.90
10443;DHT22;5269;51.146;16.986;2022-07-23T09:31:44;29.00;99.90
10443;DHT22;5269;51.146;16.986;2022-07-23T09:34:15;29.00;99.90
10443;DHT22;5269;51.146;16.986;2022-07-23T09:36:42;29.10;99.90
10443;DHT22;5269;51.146;16.986;2022-07-23T09:39:12;29.10;99.90
10443;DHT22;5269;51.146;16.986;2022-07-23T09:41:41;29.00;99.90
10443;DHT22;5269;51.146;16.986;2022-07-23T09:44:17;28.40;99.90
10443;DHT22;5269;51.146;16.986;2022-07-23T09:46:44;28.20;99.90
10443;DHT22;5269;51.146;16.986;2022-07-23T09:49:17;28.10;99.90
10443;DHT22;5269;51.146;16.986;2022-07-23T09:51:47;28.00;99.90
10443;DHT22;5269;51.146;16.986;2022-07-23T09:54:28;27.70;99.90
10443;DHT22;5269;51.146;16.986;2022-07-23T09:56:58;27.40;99.90
10443;DHT22;5269;51.146;16.986;2022-07-23T09:59:27;26.80;99.90
10443;DHT22;5269;51.146;16.986;2022-07-23T10:01:55;26.50;99.90
10443;DHT22;5269;51.146;16.986;2022-07-23T10:04:25;25.80;99.90
10443;DHT22;5269;51.146;16.986;2022-07-23T10:06:53;25.70;99.90
10443;DHT22;5269;51.146;16.986;2022-07-23T10:09:27;25.60;1.00
10443;DHT22;5269;51.146;16.986;2022-07-23T10:11:57;25.30;1.00
10443;DHT22;5269;51.146;16.986;2022-07-23T10:14:32;25.30;1.00
10443;DHT22;5269;51.146;16.986;2022-07-23T10:17:00;25.10;1.00
10443;DHT22;5269;51.146;16.986;2022-07-23T10:19:27;24.20;59.10
10443;DHT22;5269;51.146;16.986;2022-07-23T10:21:57;23.50;1.00
10443;DHT22;5269;51.146;16.986;2022-07-23T10:24:41;23.50;99.90
10443;DHT22;5269;51.146;16.986;2022-07-23T10:27:42;23.60;8.50
10443;DHT22;5269;51.146;16.986;2022-07-23T10:30:14;23.60;1.00
10443;DHT22;5269;51.146;16.986;2022-07-23T10:32:49;23.60;1.00
10443;DHT22;5269;51.146;16.986;2022-07-23T10:35:29;23.30;1.00
10443;DHT22;5269;51.146;16.986;2022-07-23T10:38:18;23.40;99.90
10443;DHT22;5269;51.146;16.986;2022-07-23T10:40:57;23.30;1.00
10443;DHT22;5269;51.146;16.986;2022-07-23T10:43:25;23.20;99.90
10443;DHT22;5269;51.146;16.986;2022-07-23T10:45:54;23.30;1.00
10443;DHT22;5269;51.146;16.986;2022-07-23T10:48:24;23.30;99.90
10443;DHT22;5269;51.146;16.986;2022-07-23T10:51:09;23.30;50.90
10443;DHT22;5269;51.146;16.986;2022-07-23T10:53:57;23.30;99.90
10443;DHT22;5269;51.146;16.986;2022-07-23T10:57:05;22.60;99.90
10443;DHT22;5269;51.146;16.986;2022-07-23T11:02:35;22.60;99.90
10443;DHT22;5269;51.146;16.986;2022-07-23T11:05:04;22.60;99.90
10443;DHT22;5269;51.146;16.986;2022-07-23T11:07:32;22.90;99.90
10443;DHT22;5269;51.146;16.986;2022-07-23T11:09:59;23.00;99.90
10443;DHT22;5269;51.146;16.986;2022-07-23T11:12:37;22.90;99.90
10443;DHT22;5269;51.146;16.986;2022-07-23T11:15:07;23.20;99.90
10443;DHT22;5269;51.146;16.986;2022-07-23T11:17:58;23.50;99.90
10443;DHT22;5269;51.146;16.986;2022-07-23T11:20:26;23.40;99.90
10443;DHT22;5269;51.146;16.986;2022-07-23T11:22:56;23.40;99.90
10443;DHT22;5269;51.146;16.986;2022-07-23T11:25:33;23.50;99.90
10443;DHT22;5269;51.146;16.986;2022-07-23T11:28:14;23.60;99.90
10443;DHT22;5269;51.146;16.986;2022-07-23T11:30:45;23.60;99.90
10443;DHT22;5269;51.146;16.986;2022-07-23T11:33:19;23.70;99.90
10443;DHT22;5269;51.146;16.986;2022-07-23T11:35:49;23.70;99.90
10443;DHT22;5269;51.146;16.986;2022-07-23T11:38:19;23.70;99.90
10443;DHT22;5269;51.146;16.986;2022-07-23T11:44:25;23.60;67.20
10443;DHT22;5269;51.146;16.986;2022-07-23T11:46:55;23.60;99.90
10443;DHT22;5269;51.146;16.986;2022-07-23T11:49:23;23.70;99.90
10443;DHT22;5269;51.146;16.986;2022-07-23T11:52:03;23.80;44.50
10443;DHT22;5269;51.146;16.986;2022-07-23T11:54:30;23.90;30.80
10443;DHT22;5269;51.146;16.986;2022-07-23T11:56:58;24.00;48.30
10443;DHT22;5269;51.146;16.986;2022-07-23T11:59:27;24.10;50.10
10443;DHT22;5269;51.146;16.986;2022-07-23T12:01:59;24.20;20.00
10443;DHT22;5269;51.146;16.986;2022-07-23T12:04:37;24.30;20.80
10443;DHT22;5269;51.146;16.986;2022-07-23T12:07:04;24.50;7.90
10443;DHT22;5269;51.146;16.986;2022-07-23T12:09:31;24.40;2.50
10443;DHT22;5269;51.146;16.986;2022-07-23T12:12:00;24.60;1.00
10443;DHT22;5269;51.146;16.986;2022-07-23T12:14:29;24.80;1.00
10443;DHT22;5269;51.146;16.986;2022-07-23T12:17:08;24.90;1.00
10443;DHT22;5269;51.146;16.986;2022-07-23T12:19:35;25.10;1.00
10443;DHT22;5269;51.146;16.986;2022-07-23T12:22:02;25.10;1.00
10443;DHT22;5269;51.146;16.986;2022-07-23T12:24:30;25.30;1.00
10443;DHT22;5269;51.146;16.986;2022-07-23T12:27:09;25.30;1.00
10443;DHT22;5269;51.146;16.986;2022-07-23T12:29:37;25.40;1.00
10443;DHT22;5269;51.146;16.986;2022-07-23T12:32:20;25.60;1.00
10443;DHT22;5269;51.146;16.986;2022-07-23T12:34:49;25.60;1.00
10443;DHT22;5269;51.146;16.986;2022-07-23T12:37:30;25.20;1.00
10443;DHT22;5269;51.146;16.986;2022-07-23T12:39:57;25.40;1.00
10443;DHT22;5269;51.146;16.986;2022-07-23T12:42:24;25.10;1.00
10443;DHT22;5269;51.146;16.986;2022-07-23T12:45:07;25.20;1.00
10443;DHT22;5269;51.146;16.986;2022-07-23T12:47:50;25.30;99.90
10443;DHT22;5269;51.146;16.986;2022-07-23T12:50:37;25.50;1.00
10443;DHT22;5269;51.146;16.986;2022-07-23T12:53:10;25.60;1.00
10443;DHT22;5269;51.146;16.986;2022-07-23T12:55:38;25.70;1.00
10443;DHT22;5269;51.146;16.986;2022-07-23T12:58:13;25.80;1.00
10443;DHT22;5269;51.146;16.986;2022-07-23T13:00:57;26.00;1.00
10443;DHT22;5269;51.146;16.986;2022-07-23T13:03:27;25.90;1.00
10443;DHT22;5269;51.146;16.986;2022-07-23T13:05:56;25.90;1.00
10443;DHT22;5269;51.146;16.986;2022-07-23T13:08:26;26.00;1.00
10443;DHT22;5269;51.146;16.986;2022-07-23T13:10:53;26.30;1.00
10443;DHT22;5269;51.146;16.986;2022-07-23T13:13:26;26.40;99.90
10443;DHT22;5269;51.146;16.986;2022-07-23T13:15:58;26.50;99.90
10443;DHT22;5269;51.146;16.986;2022-07-23T13:18:25;26.60;99.90
10443;DHT22;5269;51.146;16.986;2022-07-23T13:20:53;26.70;99.90
10443;DHT22;5269;51.146;16.986;2022-07-23T13:23:20;26.60;1.00
10443;DHT22;5269;51.146;16.986;2022-07-23T13:25:48;26.50;1.00
10443;DHT22;5269;51.146;16.986;2022-07-23T13:28:16;26.50;99.90
10443;DHT22;5269;51.146;16.986;2022-07-23T13:30:44;26.80;99.90
10443;DHT22;5269;51.146;16.986;2022-07-23T13:33:13;27.00;99.90
10443;DHT22;5269;51.146;16.986;2022-07-23T13:35:40;27.20;99.90
10443;DHT22;5269;51.146;16.986;2022-07-23T13:38:09;27.40;72.80
10443;DHT22;5269;51.146;16.986;2022-07-23T13:40:37;27.70;1.00
10443;DHT22;5269;51.146;16.986;2022-07-23T13:43:05;27.40;1.00
10443;DHT22;5269;51.146;16.986;2022-07-23T13:45:33;27.60;1.00
10443;DHT22;5269;51.146;16.986;2022-07-23T13:48:00;27.80;1.00
10443;DHT22;5269;51.146;16.986;2022-07-23T13:50:29;28.10;1.00
10443;DHT22;5269;51.146;16.986;2022-07-23T13:52:56;27.90;1.00
10443;DHT22;5269;51.146;16.986;2022-07-23T13:55:23;28.00;1.00
10443;DHT22;5269;51.146;16.986;2022-07-23T13:57:50;27.60;1.00
10443;DHT22;5269;51.146;16.986;2022-07-23T14:00:17;27.70;1.00
10443;DHT22;5269;51.146;16.986;2022-07-23T14:02:45;27.60;1.00
10443;DHT22;5269;51.146;16.986;2022-07-23T14:05:11;27.90;1.00
10443;DHT22;5269;51.146;16.986;2022-07-23T14:07:40;28.30;1.00
10443;DHT22;5269;51.146;16.986;2022-07-23T14:10:08;28.50;1.00
10443;DHT22;5269;51.146;16.986;2022-07-23T14:12:35;28.70;1.00
10443;DHT22;5269;51.146;16.986;2022-07-23T14:15:04;28.80;99.90
10443;DHT22;5269;51.146;16.986;2022-07-23T14:17:31;28.70;1.00
10443;DHT22;5269;51.146;16.986;2022-07-23T14:19:59;28.30;1.00
10443;DHT22;5269;51.146;16.986;2022-07-23T14:22:27;28.00;1.00
10443;DHT22;5269;51.146;16.986;2022-07-23T14:24:55;27.90;1.00
10443;DHT22;5269;51.146;16.986;2022-07-23T14:27:23;27.80;1.00
10443;DHT22;5269;51.146;16.986;2022-07-23T14:29:50;27.70;1.00
10443;DHT22;5269;51.146;16.986;2022-07-23T14:32:17;27.50;1.00
10443;DHT22;5269;51.146;16.986;2022-07-23T14:34:43;27.40;1.00
10443;DHT22;5269;51.146;16.986;2022-07-23T14:37:10;27.30;1.00
10443;DHT22;5269;51.146;16.986;2022-07-23T14:39:38;27.10;1.00
10443;DHT22;5269;51.146;16.986;2022-07-23T14:42:07;27.00;1.00
10443;DHT22;5269;51.146;16.986;2022-07-23T14:44:34;26.70;1.00
10443;DHT22;5269;51.146;16.986;2022-07-23T14:47:02;26.60;1.00
10443;DHT22;5269;51.146;16.986;2022-07-23T14:49:30;26.70;24.40
10443;DHT22;5269;51.146;16.986;2022-07-23T14:51:57;26.60;1.00
10443;DHT22;5269;51.146;16.986;2022-07-23T14:54:24;26.60;81.10
10443;DHT22;5269;51.146;16.986;2022-07-23T14:56:52;26.70;40.80
10443;DHT22;5269;51.146;16.986;2022-07-23T14:59:20;26.90;16.50
10443;DHT22;5269;51.146;16.986;2022-07-23T15:01:47;26.90;1.00
10443;DHT22;5269;51.146;16.986;2022-07-23T15:04:14;26.80;13.30
10443;DHT22;5269;51.146;16.986;2022-07-23T15:06:42;26.90;8.50
10443;DHT22;5269;51.146;16.986;2022-07-23T15:09:10;27.20;27.70
10443;DHT22;5269;51.146;16.986;2022-07-23T15:11:37;27.70;1.00
10443;DHT22;5269;51.146;16.986;2022-07-23T15:14:04;27.80;1.00
10443;DHT22;5269;51.146;16.986;2022-07-23T15:16:33;27.60;1.00
10443;DHT22;5269;51.146;16.986;2022-07-23T15:19:00;27.50;1.00
10443;DHT22;5269;51.146;16.986;2022-07-23T15:21:28;27.50;1.00
10443;DHT22;5269;51.146;16.986;2022-07-23T15:23:55;27.30;1.00
10443;DHT22;5269;51.146;16.986;2022-07-23T15:26:24;27.20;1.00
10443;DHT22;5269;51.146;16.986;2022-07-23T15:28:51;27.30;1.00
10443;DHT22;5269;51.146;16.986;2022-07-23T15:31:20;27.30;1.00
10443;DHT22;5269;51.146;16.986;2022-07-23T15:34:03;27.40;1.00
10443;DHT22;5269;51.146;16.986;2022-07-23T15:36:40;27.30;1.00
10443;DHT22;5269;51.146;16.986;2022-07-23T15:39:13;26.90;1.00
10443;DHT22;5269;51.146;16.986;2022-07-23T15:41:41;26.50;1.00
10443;DHT22;5269;51.146;16.986;2022-07-23T15:44:10;26.40;1.00
10443;DHT22;5269;51.146;16.986;2022-07-23T15:46:37;26.30;1.00
10443;DHT22;5269;51.146;16.986;2022-07-23T15:49:05;26.50;1.00
10443;DHT22;5269;51.146;16.986;2022-07-23T15:51:32;26.50;1.00
10443;DHT22;5269;51.146;16.986;2022-07-23T15:53:59;26.30;1.00
10443;DHT22;5269;51.146;16.986;2022-07-23T15:56:28;26.30;1.00